Millinocket, Maine
Current Conditions -  °F | °C
As of 12:53 PM on Thursday 30 Oct 2014 (Local Time) from KMLT Reporting Station
Few Clouds Few Clouds  
Wind Chill: 11°   Ceiling: Unl
Heat Index: 11°   Visibility: 10mi
Dew Point:   Wind: 8mph
Humidity: 53%   Direction: 300°WNW
Pressure: 29.84"   Gusts: NA
Location:  45.66°N, 68.71°W
Report Text: KMLT 301653Z AUTO 30007KT 10SM FEW036 11/02 A2984 RMK AO2 SLP110 T01110017
Loading
Personal Weather Stations






























Interactive Weather Map
Tropical Storm Tracking
New forecast layout! Learn more

10-Day Weather Forecast

Advertisements
Track Severe Weather on mobile